Terminal Aerodrome Forecast
Issued by NWS

Home | Current Version | Previous Version | Text Only | Print | Product List | Glossary On
Versions: 1 2 3 4 5 6 7 8 9 10 11 12 13 14 15 16 17
000
FTUS46 KLOX 230500
TAFLGB
TAF
KLGB 230530Z 2306/2406 VRB03KT 6SM BR SCT250
     FM231700 03008KT P6SM SKC
     FM232300 34007KT P6SM SKC
     FM240400 VRB05KT P6SM SKC=

USA.gov is the U.S. government's official web portal to all federal, state and local government web resources and services.